Time;durP1;ratioP1;P1;durP2;ratioP2;P2;SDS_P1;SDS_P2;PMS_P1;PMS_P2;Temp;Humidity;BMP_temperature;BMP_pressure;BME280_temperature;BME280_humidity;BME280_pressure;Samples;Min_cycle;Max_cycle;Signal;HPM_P1;HPM_P2
2021/08/23 00:00:44;;;;;;;;;;;;;;;23.93;55.39;101072.00;5050845;28;1400;-48
2021/08/23 00:03:34;;;;;;;;;;;;;;;23.86;55.65;101075.53;5046829;28;1739;-48
2021/08/23 00:06:01;;;;;;;;;;;;;;;23.89;55.70;101075.19;5042052;28;1615;-49
2021/08/23 00:08:30;;;;;;;;;;;;;;;23.85;55.27;101068.44;5046964;28;1570;-48
2021/08/23 00:10:58;;;;;;;;;;;;;;;23.88;55.62;101068.97;5048225;28;1906;-48
2021/08/23 00:13:33;;;;;;;;;;;;;;;23.86;55.21;101075.53;5051315;28;1563;-49
2021/08/23 00:16:00;;;;;;;;;;;;;;;23.88;54.85;101065.41;5044334;28;1520;-49
2021/08/23 00:18:26;;;;;;;;;;;;;;;23.80;55.36;101072.44;5046206;28;1476;-49
2021/08/23 00:20:58;;;;;;;;;;;;;;;23.79;55.65;101073.44;5047909;28;1608;-48
2021/08/23 00:23:28;;;;;;;;;;;;;;;23.78;55.27;101079.03;5045419;28;1603;-49
2021/08/23 00:25:55;;;;;;;;;;;;;;;23.82;55.46;101075.84;5047071;28;1461;-49
2021/08/23 00:28:27;;;;;;;;;;;;;;;23.88;54.94;101078.91;5049214;28;1821;-49
2021/08/23 00:30:54;;;;;;;;;;;;;;;23.82;55.58;101075.84;5051027;28;1981;-49
2021/08/23 00:33:21;;;;;;;;;;;;;;;23.80;55.44;101072.44;5054058;28;1528;-49
2021/08/23 00:35:55;;;;;;;;;;;;;;;23.74;55.82;101075.75;5050229;28;1695;-49
2021/08/23 00:38:24;;;;;;;;;;;;;;;23.73;55.62;101075.91;5050263;28;1727;-49
2021/08/23 00:40:51;;;;;;;;;;;;;;;23.74;55.58;101089.25;5049001;28;1547;-48
2021/08/23 00:43:18;;;;;;;;;;;;;;;23.74;55.65;101080.31;5058923;28;1867;-49
2021/08/23 00:45:49;;;;;;;;;;;;;;;23.70;55.68;101077.09;5049624;28;1736;-49
2021/08/23 00:48:17;;;;;;;;;;;;;;;23.76;55.74;101081.00;5049984;28;1738;-49
2021/08/23 00:50:44;;;;;;;;;;;;;;;23.75;55.38;101077.44;5049022;28;1909;-49
2021/08/23 00:53:11;;;;;;;;;;;;;;;23.75;55.49;101082.00;5052012;28;1444;-49
2021/08/23 00:55:38;;;;;;;;;;;;;;;23.74;55.54;101086.56;5053951;28;1655;-49
2021/08/23 00:58:05;;;;;;;;;;;;;;;23.75;55.47;101080.13;5049432;28;1484;-49
2021/08/23 01:00:34;;;;;;;;;;;;;;;23.74;55.63;101099.22;5050884;28;1543;-48
2021/08/23 01:03:16;;;;;;;;;;;;;;;23.70;55.80;101092.44;5048257;28;1592;-48
2021/08/23 01:05:44;;;;;;;;;;;;;;;23.67;55.74;101084.66;5053370;28;1396;-49
2021/08/23 01:08:16;;;;;;;;;;;;;;;23.66;55.62;101075.72;5048442;28;1580;-48
2021/08/23 01:10:45;;;;;;;;;;;;;;;23.66;55.45;101086.50;5050071;28;1928;-49
2021/08/23 01:13:12;;;;;;;;;;;;;;;23.54;55.75;101067.03;5047817;28;1716;-49
2021/08/23 01:15:39;;;;;;;;;;;;;;;23.54;55.54;101066.19;5052818;28;1821;-48
2021/08/23 01:18:11;;;;;;;;;;;;;;;23.61;55.75;101069.94;5050418;28;1326;-48
2021/08/23 01:20:46;;;;;;;;;;;;;;;23.60;55.18;101065.56;5049379;28;1587;-49
2021/08/23 01:23:14;;;;;;;;;;;;;;;23.58;55.31;101067.56;5053353;28;1783;-48
2021/08/23 01:25:46;;;;;;;;;;;;;;;23.61;55.11;101072.63;5053088;28;1577;-48
2021/08/23 01:28:17;;;;;;;;;;;;;;;23.62;55.20;101074.34;5048998;28;1553;-48
2021/08/23 01:30:48;;;;;;;;;;;;;;;23.59;55.56;101074.66;5054525;28;1910;-48
2021/08/23 01:33:30;;;;;;;;;;;;;;;23.62;55.55;101068.94;5045818;28;1473;-49
2021/08/23 01:35:58;;;;;;;;;;;;;;;23.57;54.71;101077.50;5045734;28;1503;-49
2021/08/23 01:38:25;;;;;;;;;;;;;;;23.55;55.13;101074.09;5049955;28;1467;-48
2021/08/23 01:40:58;;;;;;;;;;;;;;;23.54;55.15;101069.72;5051303;28;1645;-48
2021/08/23 01:43:25;;;;;;;;;;;;;;;23.55;55.02;101062.47;5048768;28;1499;-49
2021/08/23 01:45:58;;;;;;;;;;;;;;;23.52;55.02;101060.09;5050509;28;1404;-49
2021/08/23 01:48:26;;;;;;;;;;;;;;;23.53;55.17;101065.31;5056937;28;2414;-49
2021/08/23 01:51:05;;;;;;;;;;;;;;;23.53;55.07;101061.78;5044845;28;1910;-49
2021/08/23 01:53:31;;;;;;;;;;;;;;;23.50;55.20;101059.41;5049154;28;1466;-48
2021/08/23 01:55:58;;;;;;;;;;;;;;;23.51;54.92;101069.19;5043643;28;2139;-48
2021/08/23 02:01:24;;;;;;;;;;;;;;;23.52;54.89;101052.00;5163355;22;3621;-49
2021/08/23 02:03:56;;;;;;;;;;;;;;;23.53;54.77;101075.28;5006631;28;1702;-48
2021/08/23 02:06:31;;;;;;;;;;;;;;;23.46;54.88;101052.59;5004244;28;1939;-49
2021/08/23 02:09:02;;;;;;;;;;;;;;;23.47;54.72;101057.84;5007072;28;1555;-49
2021/08/23 02:11:31;;;;;;;;;;;;;;;23.48;54.71;101056.88;5007831;28;1977;-50
2021/08/23 02:14:01;;;;;;;;;;;;;;;23.48;54.80;101061.44;4995757;28;1948;-48
2021/08/23 02:16:28;;;;;;;;;;;;;;;23.45;54.62;101056.34;5003724;28;1887;-48
2021/08/23 02:19:06;;;;;;;;;;;;;;;23.44;54.93;101052.78;4993073;28;1074;-49
2021/08/23 02:21:47;;;;;;;;;;;;;;;23.43;54.81;101059.19;4997500;28;1942;-48
2021/08/23 02:24:15;;;;;;;;;;;;;;;23.42;54.83;101062.91;5001213;28;1567;-48
2021/08/23 02:26:44;;;;;;;;;;;;;;;23.42;54.45;101073.69;5009509;28;1828;-48
2021/08/23 02:29:13;;;;;;;;;;;;;;;23.48;54.67;101066.81;5002954;28;1972;-49
2021/08/23 02:31:40;;;;;;;;;;;;;;;23.46;54.88;101063.41;5010782;28;2047;-48
2021/08/23 02:34:10;;;;;;;;;;;;;;;23.43;54.91;101068.13;5012151;28;1844;-50
2021/08/23 02:36:47;;;;;;;;;;;;;;;23.43;54.63;101065.41;5004728;28;1746;-48
2021/08/23 02:39:16;;;;;;;;;;;;;;;23.42;54.69;101066.44;5008996;28;1131;-49
2021/08/23 02:41:42;;;;;;;;;;;;;;;23.42;54.69;101071.84;5010174;28;1717;-48
2021/08/23 02:44:11;;;;;;;;;;;;;;;23.42;54.97;101065.59;5000918;28;1993;-48
2021/08/23 02:46:41;;;;;;;;;;;;;;;23.46;54.93;101068.81;4998240;28;1577;-49
2021/08/23 02:49:16;;;;;;;;;;;;;;;23.46;54.46;101066.09;5011654;28;1719;-49
2021/08/23 02:51:44;;;;;;;;;;;;;;;23.40;54.96;101076.53;5010404;28;1902;-49
2021/08/23 02:54:12;;;;;;;;;;;;;;;23.43;54.63;101060.03;5006658;28;1965;-49
2021/08/23 02:56:41;;;;;;;;;;;;;;;23.41;54.99;101077.38;5005550;28;1324;-49
2021/08/23 02:59:16;;;;;;;;;;;;;;;23.23;55.35;101072.00;5003252;28;1426;-48
2021/08/23 03:01:43;;;;;;;;;;;;;;;23.20;55.45;101070.47;5007595;28;1464;-48
2021/08/23 03:04:10;;;;;;;;;;;;;;;23.40;54.73;101075.72;5038661;28;2676;-49
2021/08/23 03:06:38;;;;;;;;;;;;;;;23.51;54.98;101071.88;5052109;28;1747;-48
2021/08/23 03:09:08;;;;;;;;;;;;;;;23.41;54.94;101075.53;5051492;28;1605;-49
2021/08/23 03:11:34;;;;;;;;;;;;;;;23.38;55.13;101065.06;5045974;28;1965;-48
2021/08/23 03:14:06;;;;;;;;;;;;;;;23.51;55.23;101080.00;5046141;28;1526;-49
2021/08/23 03:16:35;;;;;;;;;;;;;;;23.37;54.85;101076.84;5045087;28;1454;-50
2021/08/23 03:19:02;;;;;;;;;;;;;;;23.28;55.15;101077.81;5035740;28;1224;-49
2021/08/23 03:21:29;;;;;;;;;;;;;;;23.27;55.39;101083.34;5049622;28;2468;-50
2021/08/23 03:24:00;;;;;;;;;;;;;;;23.27;54.95;101070.69;5061280;28;1231;-49
2021/08/23 03:26:33;;;;;;;;;;;;;;;23.28;54.91;101087.72;5050100;28;1523;-50
2021/08/23 03:29:02;;;;;;;;;;;;;;;23.26;54.56;101079.81;5045897;28;1370;-49
2021/08/23 03:31:30;;;;;;;;;;;;;;;23.29;55.17;101081.34;5047775;28;1902;-48
2021/08/23 03:33:59;;;;;;;;;;;;;;;23.18;55.25;101077.06;5038691;28;1352;-49
2021/08/23 03:36:29;;;;;;;;;;;;;;;22.97;55.43;101112.38;5051510;28;1937;-49
2021/08/23 03:38:59;;;;;;;;;;;;;;;22.87;56.01;101085.47;5064921;28;1943;-49
2021/08/23 03:41:25;;;;;;;;;;;;;;;22.99;55.74;101078.84;5050377;28;1807;-48
2021/08/23 03:43:56;;;;;;;;;;;;;;;23.14;55.44;101091.81;5049639;28;1529;-49
2021/08/23 03:46:27;;;;;;;;;;;;;;;23.16;55.97;101082.59;5053192;28;1816;-49
2021/08/23 03:49:02;;;;;;;;;;;;;;;23.10;55.40;101090.44;5059260;28;1709;-48
2021/08/23 03:51:50;;;;;;;;;;;;;;;23.09;55.52;101084.19;5050069;28;1902;-49
2021/08/23 03:54:22;;;;;;;;;;;;;;;23.07;55.47;101079.97;5045924;28;1592;-48
2021/08/23 03:56:50;;;;;;;;;;;;;;;23.02;55.66;101086.69;5055773;28;1998;-49
2021/08/23 03:59:20;;;;;;;;;;;;;;;22.99;55.68;101084.25;5054882;28;1831;-49
2021/08/23 04:01:47;;;;;;;;;;;;;;;23.08;55.33;101101.41;5060974;28;1773;-48
2021/08/23 04:04:14;;;;;;;;;;;;;;;23.08;55.61;101096.00;5055697;28;1793;-49
2021/08/23 04:06:53;;;;;;;;;;;;;;;23.10;55.60;101095.84;5057574;28;1438;-49
2021/08/23 04:09:37;;;;;;;;;;;;;;;23.13;55.42;101104.47;5065266;28;1419;-49
2021/08/23 04:12:07;;;;;;;;;;;;;;;23.13;55.64;101100.94;5058527;28;1906;-50
2021/08/23 04:14:35;;;;;;;;;;;;;;;23.06;55.74;101111.50;5055855;28;1141;-49
2021/08/23 04:17:01;;;;;;;;;;;;;;;23.20;55.46;101108.25;5056896;28;1852;-49
2021/08/23 04:19:30;;;;;;;;;;;;;;;23.22;55.58;101111.66;5052751;28;1593;-48
2021/08/23 04:22:05;;;;;;;;;;;;;;;23.33;55.30;101110.53;5058302;28;1663;-48
2021/08/23 04:24:43;;;;;;;;;;;;;;;23.46;55.20;101117.38;5056103;28;1675;-49
2021/08/23 04:27:10;;;;;;;;;;;;;;;23.47;55.11;101113.69;5052921;28;1638;-49
2021/08/23 04:29:37;;;;;;;;;;;;;;;23.47;55.15;101108.31;5054732;28;1586;-48
2021/08/23 04:32:05;;;;;;;;;;;;;;;23.57;55.21;101109.06;5065957;28;2032;-49
2021/08/23 04:34:32;;;;;;;;;;;;;;;23.50;55.18;101102.59;5073074;28;1775;-49
2021/08/23 04:37:03;;;;;;;;;;;;;;;23.37;55.31;101108.38;5063381;28;1709;-49
2021/08/23 04:39:29;;;;;;;;;;;;;;;23.42;55.46;101101.53;5044806;28;1835;-49
2021/08/23 04:42:13;;;;;;;;;;;;;;;23.44;55.46;101120.28;5063783;28;1709;-49
2021/08/23 04:44:44;;;;;;;;;;;;;;;23.44;55.17;101109.47;5062905;28;1738;-48
2021/08/23 04:47:13;;;;;;;;;;;;;;;23.54;55.08;101109.38;5063853;28;1806;-49
2021/08/23 04:49:39;;;;;;;;;;;;;;;23.84;54.46;101118.06;5060322;28;1873;-48
2021/08/23 04:52:09;;;;;;;;;;;;;;;23.93;54.59;101136.00;5064108;28;1910;-49
2021/08/23 04:54:43;;;;;;;;;;;;;;;23.87;53.93;101131.22;5062537;28;1836;-48
2021/08/23 04:57:10;;;;;;;;;;;;;;;23.86;54.00;101125.00;5056032;28;1747;-49
2021/08/23 04:59:39;;;;;;;;;;;;;;;23.85;54.66;101130.53;5060024;28;1606;-49
2021/08/23 05:02:06;;;;;;;;;;;;;;;23.88;54.74;101111.34;5067879;28;1803;-48
2021/08/23 05:04:33;;;;;;;;;;;;;;;23.94;54.81;101116.94;5069505;28;1931;-49
2021/08/23 05:07:03;;;;;;;;;;;;;;;23.98;55.11;101130.97;5052531;28;1627;-49
2021/08/23 05:09:34;;;;;;;;;;;;;;;23.99;54.88;101121.84;5058961;28;1862;-48
2021/08/23 05:12:04;;;;;;;;;;;;;;;24.03;54.88;101125.91;5046565;28;1906;-49
2021/08/23 05:14:31;;;;;;;;;;;;;;;24.13;55.08;101115.00;5052491;28;1224;-48
2021/08/23 05:17:00;;;;;;;;;;;;;;;24.19;55.24;101115.22;5059454;28;1923;-48
2021/08/23 05:19:36;;;;;;;;;;;;;;;24.19;55.61;101123.34;5053857;28;2028;-50
2021/08/23 05:22:05;;;;;;;;;;;;;;;24.03;55.85;101107.00;5041400;28;1955;-48
2021/08/23 05:24:31;;;;;;;;;;;;;;;24.11;55.08;101112.44;5049432;28;1583;-48
2021/08/23 05:27:05;;;;;;;;;;;;;;;24.17;55.46;101106.44;5067694;28;1466;-49
2021/08/23 05:29:31;;;;;;;;;;;;;;;24.12;55.54;101116.03;5043862;28;2039;-48
2021/08/23 05:31:58;;;;;;;;;;;;;;;23.94;56.99;101102.59;5039925;28;1909;-48
2021/08/23 05:34:25;;;;;;;;;;;;;;;23.89;57.12;101118.41;5045627;28;1608;-48
2021/08/23 05:37:08;;;;;;;;;;;;;;;23.92;57.22;101101.91;5052728;28;1611;-48
2021/08/23 05:39:36;;;;;;;;;;;;;;;24.09;56.74;101103.66;5050310;28;1957;-48
2021/08/23 05:42:02;;;;;;;;;;;;;;;24.15;56.21;101105.75;5036961;28;1387;-48
2021/08/23 05:44:32;;;;;;;;;;;;;;;24.19;56.74;101117.94;5052465;28;1914;-48
2021/08/23 05:46:59;;;;;;;;;;;;;;;24.33;56.92;101110.19;5068070;28;1853;-48
2021/08/23 05:49:28;;;;;;;;;;;;;;;24.41;56.47;101113.78;5060063;28;1593;-48
2021/08/23 05:51:56;;;;;;;;;;;;;;;24.45;57.19;101106.19;5051211;28;1906;-48
2021/08/23 05:54:22;;;;;;;;;;;;;;;24.42;56.99;101111.94;5057349;28;1803;-48
2021/08/23 05:56:52;;;;;;;;;;;;;;;24.52;57.15;101119.94;5062608;28;1647;-48
2021/08/23 05:59:21;;;;;;;;;;;;;;;24.63;56.64;101116.06;5049368;28;1795;-48
2021/08/23 06:01:52;;;;;;;;;;;;;;;24.66;56.87;101110.34;5052387;28;1839;-48
2021/08/23 06:04:21;;;;;;;;;;;;;;;24.77;56.91;101119.00;5034288;28;1844;-48
2021/08/23 06:06:48;;;;;;;;;;;;;;;24.65;57.38;101105.94;5062627;28;1562;-48
2021/08/23 06:09:30;;;;;;;;;;;;;;;24.73;57.05;101119.47;5048624;28;1402;-48
2021/08/23 06:11:59;;;;;;;;;;;;;;;24.78;56.76;101101.75;5042508;28;2036;-48
2021/08/23 06:14:27;;;;;;;;;;;;;;;24.68;57.80;101108.34;5051305;28;1708;-49
2021/08/23 06:16:56;;;;;;;;;;;;;;;24.55;58.09;101106.06;5066515;28;1773;-48
2021/08/23 06:19:23;;;;;;;;;;;;;;;24.71;57.87;101092.63;5052270;28;1976;-48
2021/08/23 06:21:50;;;;;;;;;;;;;;;24.75;57.16;101093.13;5052035;28;1674;-49
2021/08/23 06:24:22;;;;;;;;;;;;;;;24.90;56.65;101096.88;5056125;28;1526;-48
2021/08/23 06:26:51;;;;;;;;;;;;;;;24.87;57.26;101102.63;5068750;28;1782;-48
2021/08/23 06:29:19;;;;;;;;;;;;;;;24.91;56.26;101093.19;5050867;28;1803;-48
2021/08/23 06:31:46;;;;;;;;;;;;;;;24.78;55.67;101098.22;5063961;28;1975;-47
2021/08/23 06:34:13;;;;;;;;;;;;;;;24.77;55.16;101089.25;5051974;28;1705;-48
2021/08/23 06:36:42;;;;;;;;;;;;;;;24.91;55.61;101089.59;5051401;28;1731;-48
2021/08/23 06:39:08;;;;;;;;;;;;;;;24.94;56.12;101081.16;5052603;28;1834;-49
2021/08/23 06:41:39;;;;;;;;;;;;;;;24.25;57.05;101086.69;5048217;28;1831;-49
2021/08/23 06:44:12;;;;;;;;;;;;;;;23.55;57.28;101081.38;5044630;28;1564;-49
2021/08/23 06:46:41;;;;;;;;;;;;;;;23.11;56.39;101092.16;5050993;28;1781;-48
2021/08/23 06:49:09;;;;;;;;;;;;;;;22.82;56.27;101080.56;5054863;28;1925;-49
2021/08/23 06:51:36;;;;;;;;;;;;;;;22.93;56.25;101095.66;5043409;28;1968;-48
2021/08/23 06:54:05;;;;;;;;;;;;;;;23.16;56.30;101073.66;5059181;28;1475;-48
2021/08/23 06:56:34;;;;;;;;;;;;;;;23.27;56.99;101092.28;5053876;28;1333;-47
2021/08/23 06:59:05;;;;;;;;;;;;;;;23.33;57.12;101093.50;5052633;28;2108;-48
2021/08/23 07:01:34;;;;;;;;;;;;;;;23.29;57.69;101095.69;5051451;28;1783;-49
2021/08/23 07:04:02;;;;;;;;;;;;;;;23.30;58.07;101100.09;5054874;28;1562;-48
2021/08/23 07:06:30;;;;;;;;;;;;;;;23.27;58.26;101086.88;5053938;28;1709;-49
2021/08/23 07:08:57;;;;;;;;;;;;;;;23.26;58.33;101089.72;5053375;28;1709;-47
2021/08/23 07:11:27;;;;;;;;;;;;;;;23.29;58.61;101105.63;5053375;28;1973;-47
2021/08/23 07:13:55;;;;;;;;;;;;;;;23.28;58.69;101096.69;5055097;28;1637;-47
2021/08/23 07:16:23;;;;;;;;;;;;;;;23.33;58.45;101099.75;5046662;28;1608;-48
2021/08/23 07:18:50;;;;;;;;;;;;;;;23.25;59.07;101094.28;5053098;28;1710;-48
2021/08/23 07:21:19;;;;;;;;;;;;;;;23.19;59.42;101094.91;5047965;28;1909;-48
2021/08/23 07:23:48;;;;;;;;;;;;;;;23.28;59.47;101095.81;5054732;28;1873;-48
2021/08/23 07:26:15;;;;;;;;;;;;;;;23.84;58.32;101100.00;5053070;28;1539;-48
2021/08/23 07:28:46;;;;;;;;;;;;;;;24.21;56.76;101080.78;5061599;28;1763;-48
2021/08/23 07:31:12;;;;;;;;;;;;;;;24.43;56.64;101089.28;5056803;28;1910;-48
2021/08/23 07:33:45;;;;;;;;;;;;;;;24.55;57.01;101069.09;5058650;28;1822;-47
2021/08/23 07:36:11;;;;;;;;;;;;;;;24.67;56.17;101082.28;5053793;28;1782;-48
2021/08/23 07:38:38;;;;;;;;;;;;;;;24.76;56.93;101073.19;5055377;28;1610;-48
2021/08/23 07:41:08;;;;;;;;;;;;;;;24.76;57.23;101078.59;5053552;28;1420;-48
2021/08/23 07:43:39;;;;;;;;;;;;;;;24.79;57.22;101072.88;5059117;28;1553;-48
2021/08/23 07:46:09;;;;;;;;;;;;;;;24.87;57.29;101086.41;5056701;28;1647;-48
2021/08/23 07:48:35;;;;;;;;;;;;;;;24.91;57.55;101076.06;5052348;28;1941;-48
2021/08/23 07:51:15;;;;;;;;;;;;;;;24.91;56.71;101076.06;5047153;28;1498;-48
2021/08/23 07:53:44;;;;;;;;;;;;;;;24.96;57.31;101063.75;5051645;28;1589;-48
2021/08/23 07:56:11;;;;;;;;;;;;;;;24.97;57.45;101065.44;5060806;28;1516;-48
2021/08/23 07:58:38;;;;;;;;;;;;;;;25.01;57.21;101072.22;5066259;28;1634;-48
2021/08/23 08:01:04;;;;;;;;;;;;;;;25.05;57.17;101072.72;5063455;28;1684;-47
2021/08/23 08:03:31;;;;;;;;;;;;;;;25.02;57.01;101060.34;5054161;28;1594;-49
2021/08/23 08:06:00;;;;;;;;;;;;;;;25.08;57.56;101076.94;5055742;28;1538;-48
2021/08/23 08:08:53;;;;;;;;;;;;;;;25.09;57.24;101067.81;5054551;28;1527;-48
2021/08/23 08:11:20;;;;;;;;;;;;;;;25.11;56.74;101063.94;5050135;28;1910;-48
2021/08/23 08:13:47;;;;;;;;;;;;;;;25.13;57.66;101063.78;5058023;28;1766;-49
2021/08/23 08:16:13;;;;;;;;;;;;;;;25.15;57.83;101053.63;5053226;28;1478;-48
2021/08/23 08:18:40;;;;;;;;;;;;;;;25.13;57.33;101050.25;5056091;28;1825;-48
2021/08/23 08:21:09;;;;;;;;;;;;;;;25.12;57.17;101062.91;5062285;28;2042;-48
2021/08/23 08:23:41;;;;;;;;;;;;;;;25.15;57.50;101050.91;5054140;28;1522;-48
2021/08/23 08:26:10;;;;;;;;;;;;;;;25.12;57.48;101045.81;5056891;28;1699;-48
2021/08/23 08:28:39;;;;;;;;;;;;;;;25.13;57.65;101059.19;5054026;28;1553;-48
2021/08/23 08:31:29;;;;;;;;;;;;;;;24.90;59.55;101053.59;5050091;28;1716;-48
2021/08/23 08:33:59;;;;;;;;;;;;;;;24.05;59.14;101032.03;5045256;28;1790;-48
2021/08/23 08:36:25;;;;;;;;;;;;;;;23.33;58.64;101032.28;5051719;28;1938;-48
2021/08/23 08:38:55;;;;;;;;;;;;;;;22.98;57.54;101050.22;5057515;28;1622;-47
2021/08/23 08:41:30;;;;;;;;;;;;;;;22.78;57.15;101037.84;5053049;28;1651;-48
2021/08/23 08:44:00;;;;;;;;;;;;;;;22.71;56.49;101036.78;5055696;28;1842;-47
2021/08/23 08:46:27;;;;;;;;;;;;;;;22.87;55.82;101042.34;5049792;28;1544;-47
2021/08/23 08:48:58;;;;;;;;;;;;;;;22.98;56.09;101044.81;5046506;28;1630;-47
2021/08/23 08:51:26;;;;;;;;;;;;;;;23.11;56.41;101054.38;5049522;28;1946;-47
2021/08/23 08:54:01;;;;;;;;;;;;;;;23.19;56.80;101016.69;5053296;28;1902;-48
2021/08/23 08:56:32;;;;;;;;;;;;;;;23.18;57.84;101039.28;5055319;28;1657;-47
2021/08/23 08:58:59;;;;;;;;;;;;;;;23.19;57.90;101036.41;5048122;28;1651;-48
2021/08/23 09:01:25;;;;;;;;;;;;;;;23.19;58.23;101035.56;5058855;28;1589;-48
2021/08/23 09:03:53;;;;;;;;;;;;;;;23.26;58.39;101041.16;5046787;28;1682;-48
2021/08/23 09:06:30;;;;;;;;;;;;;;;23.33;58.81;101037.69;5056552;28;1814;-48
2021/08/23 09:09:07;;;;;;;;;;;;;;;23.18;59.17;101028.50;5051556;28;1598;-48
2021/08/23 09:11:35;;;;;;;;;;;;;;;23.27;59.22;101022.13;5054111;28;1764;-47
2021/08/23 09:14:11;;;;;;;;;;;;;;;23.27;59.25;101027.53;5059544;28;1968;-47
2021/08/23 09:16:40;;;;;;;;;;;;;;;23.28;59.59;101020.28;5059758;28;1394;-48
2021/08/23 09:19:07;;;;;;;;;;;;;;;23.21;59.38;101025.47;5055038;28;1452;-47
2021/08/23 09:21:39;;;;;;;;;;;;;;;23.23;59.79;101023.44;5054355;28;2037;-47
2021/08/23 09:24:25;;;;;;;;;;;;;;;23.26;59.78;101015.06;5053314;28;1938;-47
2021/08/23 09:27:02;;;;;;;;;;;;;;;23.25;60.09;101021.44;5040478;28;1825;-47
2021/08/23 09:29:30;;;;;;;;;;;;;;;23.23;59.97;101020.75;5047514;28;2023;-47
2021/08/23 09:31:59;;;;;;;;;;;;;;;23.18;60.46;101018.53;5053386;28;1918;-48
2021/08/23 09:34:27;;;;;;;;;;;;;;;23.14;60.39;100997.41;5047631;28;1656;-48
2021/08/23 09:36:56;;;;;;;;;;;;;;;23.22;60.59;101002.88;5054108;28;1641;-48
2021/08/23 09:39:32;;;;;;;;;;;;;;;23.24;60.48;101019.75;5056553;28;1539;-47
2021/08/23 09:42:06;;;;;;;;;;;;;;;23.19;60.60;101009.41;5062015;28;1439;-48
2021/08/23 09:44:36;;;;;;;;;;;;;;;23.20;61.02;101013.00;5046408;28;1922;-47
2021/08/23 09:47:03;;;;;;;;;;;;;;;23.14;61.13;101003.66;5048621;28;1942;-47
2021/08/23 09:49:34;;;;;;;;;;;;;;;23.13;61.40;101003.81;5046722;28;1589;-48
2021/08/23 09:52:01;;;;;;;;;;;;;;;23.16;61.17;100988.16;5058760;28;1973;-48
2021/08/23 09:54:35;;;;;;;;;;;;;;;23.17;61.55;100989.00;5054449;28;1828;-48
2021/08/23 09:57:04;;;;;;;;;;;;;;;23.11;61.21;100981.56;5059124;28;1915;-48
2021/08/23 09:59:39;;;;;;;;;;;;;;;23.12;61.74;100989.50;5056151;28;1726;-48
2021/08/23 10:02:08;;;;;;;;;;;;;;;23.14;61.52;100994.69;5059991;28;1761;-48
2021/08/23 10:04:36;;;;;;;;;;;;;;;23.21;61.37;100993.09;5053973;28;1700;-48
2021/08/23 10:07:04;;;;;;;;;;;;;;;23.18;61.60;100986.16;5065662;28;1695;-48
2021/08/23 10:09:33;;;;;;;;;;;;;;;23.17;61.95;100983.63;5060184;28;1567;-48
2021/08/23 10:12:16;;;;;;;;;;;;;;;23.20;61.78;100978.75;5046675;28;1906;-48
2021/08/23 10:14:47;;;;;;;;;;;;;;;23.22;61.74;100981.31;5051975;28;1576;-47
2021/08/23 10:17:18;;;;;;;;;;;;;;;23.41;61.64;100980.22;5050873;28;2064;-47
2021/08/23 10:19:45;;;;;;;;;;;;;;;23.76;60.51;100971.13;5060034;28;1531;-47
2021/08/23 10:22:26;;;;;;;;;;;;;;;24.06;59.63;100968.91;5054449;28;1699;-48
2021/08/23 10:24:57;;;;;;;;;;;;;;;24.21;58.87;100953.78;5040674;28;1601;-48
2021/08/23 10:27:25;;;;;;;;;;;;;;;24.36;59.34;100970.16;5063548;28;1618;-48
2021/08/23 10:29:55;;;;;;;;;;;;;;;24.46;58.34;100967.31;5060760;28;1610;-49
2021/08/23 10:32:33;;;;;;;;;;;;;;;24.50;58.21;100952.47;5054176;28;1934;-49
2021/08/23 10:35:15;;;;;;;;;;;;;;;24.63;58.87;100970.94;5053471;28;1982;-48
2021/08/23 10:37:43;;;;;;;;;;;;;;;24.66;58.12;100956.22;5043661;28;1655;-48
2021/08/23 10:40:23;;;;;;;;;;;;;;;24.70;59.03;100955.69;5055696;28;1558;-48
2021/08/23 10:42:49;;;;;;;;;;;;;;;24.72;58.57;100939.31;5063698;28;1595;-48
2021/08/23 10:45:20;;;;;;;;;;;;;;;24.70;58.49;100944.88;5051950;28;1593;-49
2021/08/23 10:47:48;;;;;;;;;;;;;;;24.81;58.63;100935.59;5042189;28;1553;-49
2021/08/23 10:50:23;;;;;;;;;;;;;;;24.85;58.40;100934.25;5047529;28;1607;-49
2021/08/23 10:52:57;;;;;;;;;;;;;;;24.89;59.54;100938.31;5041120;28;1993;-48
2021/08/23 10:55:25;;;;;;;;;;;;;;;24.89;59.26;100935.59;5049789;28;1523;-49
2021/08/23 10:58:02;;;;;;;;;;;;;;;24.98;59.65;100939.97;5050003;28;1851;-48
2021/08/23 11:00:40;;;;;;;;;;;;;;;24.93;59.53;100934.22;5050645;28;1676;-49
2021/08/23 11:03:11;;;;;;;;;;;;;;;25.01;59.49;100941.50;5054427;28;1481;-49
2021/08/23 11:05:38;;;;;;;;;;;;;;;25.03;58.85;100950.28;5051869;28;1794;-49
2021/08/23 11:08:09;;;;;;;;;;;;;;;25.05;58.59;100921.19;5055519;28;1636;-48
2021/08/23 11:10:40;;;;;;;;;;;;;;;25.08;59.54;100928.97;5052830;28;1791;-51
2021/08/23 11:13:15;;;;;;;;;;;;;;;25.16;58.45;100914.56;5045438;28;1902;-51
2021/08/23 11:15:47;;;;;;;;;;;;;;;25.18;59.33;100920.66;5046226;28;1803;-50
2021/08/23 11:18:20;;;;;;;;;;;;;;;25.11;60.53;100909.69;5047950;28;1452;-49
2021/08/23 11:20:52;;;;;;;;;;;;;;;24.55;60.53;100915.00;5048815;28;1627;-50
2021/08/23 11:23:22;;;;;;;;;;;;;;;23.91;59.32;100919.22;5056810;28;1624;-49
2021/08/23 11:25:59;;;;;;;;;;;;;;;23.52;59.17;100919.75;5051746;28;1777;-50
2021/08/23 11:28:28;;;;;;;;;;;;;;;23.16;58.44;100917.19;5049517;28;1956;-49
2021/08/23 11:31:02;;;;;;;;;;;;;;;23.05;58.27;100904.78;5048197;28;1775;-49
2021/08/23 11:33:43;;;;;;;;;;;;;;;23.03;57.85;100914.91;5053155;28;1972;-49
2021/08/23 11:36:25;;;;;;;;;;;;;;;23.21;57.78;100906.75;5054081;28;1885;-49
2021/08/23 11:39:00;;;;;;;;;;;;;;;23.31;58.13;100904.78;5054083;28;1919;-49
2021/08/23 11:41:27;;;;;;;;;;;;;;;23.45;58.36;100906.03;5044433;28;1831;-49
2021/08/23 11:44:02;;;;;;;;;;;;;;;23.43;59.51;100892.69;5060216;28;1459;-49
2021/08/23 11:46:32;;;;;;;;;;;;;;;23.53;59.84;100889.88;5047119;28;1617;-50
2021/08/23 11:49:07;;;;;;;;;;;;;;;23.53;60.22;100902.53;5047009;28;1558;-49
2021/08/23 11:51:36;;;;;;;;;;;;;;;23.50;61.05;100881.28;5058153;28;1886;-49
2021/08/23 11:54:05;;;;;;;;;;;;;;;23.52;61.37;100887.34;5048203;28;1906;-49
2021/08/23 11:56:32;;;;;;;;;;;;;;;23.52;61.20;100896.28;5054621;28;1732;-49
2021/08/23 11:59:02;;;;;;;;;;;;;;;23.47;61.80;100881.59;5049916;28;1565;-49
2021/08/23 12:01:34;;;;;;;;;;;;;;;23.51;62.29;100872.16;5049833;28;1438;-50
2021/08/23 12:06:54;;;;;;;;;;;;;;;23.56;62.21;100876.06;5052932;28;1364;-49
2021/08/23 12:09:24;;;;;;;;;;;;;;;23.53;62.13;100872.84;5056023;28;1556;-49
2021/08/23 12:11:51;;;;;;;;;;;;;;;23.56;62.38;100864.41;5049816;28;1764;-49
2021/08/23 12:14:18;;;;;;;;;;;;;;;23.49;62.46;100869.59;5062358;28;1909;-50
2021/08/23 12:16:51;;;;;;;;;;;;;;;23.60;62.21;100860.38;5052455;28;1929;-50
2021/08/23 12:19:19;;;;;;;;;;;;;;;23.57;62.35;100855.28;5052168;28;2052;-50
2021/08/23 12:21:49;;;;;;;;;;;;;;;23.43;62.22;100857.59;5051478;28;1726;-49
2021/08/23 12:24:28;;;;;;;;;;;;;;;23.49;62.41;100858.81;5056125;28;1610;-49
2021/08/23 12:26:56;;;;;;;;;;;;;;;23.48;62.14;100861.69;5058349;28;1586;-49
2021/08/23 12:29:29;;;;;;;;;;;;;;;23.51;62.11;100843.28;5058174;28;1550;-49
2021/08/23 12:32:11;;;;;;;;;;;;;;;23.48;61.98;100823.91;5066762;28;1910;-50
2021/08/23 12:34:40;;;;;;;;;;;;;;;23.49;61.86;100842.63;5054758;28;1968;-49
2021/08/23 12:37:06;;;;;;;;;;;;;;;23.46;62.16;100847.50;5049594;28;1504;-49
2021/08/23 12:39:34;;;;;;;;;;;;;;;23.49;62.65;100847.19;5065863;28;1711;-50
2021/08/23 12:42:04;;;;;;;;;;;;;;;23.40;62.25;100822.84;5068810;28;1139;-49
2021/08/23 12:44:34;;;;;;;;;;;;;;;23.38;62.30;100835.66;5053489;28;1739;-49
2021/08/23 12:47:07;;;;;;;;;;;;;;;23.28;62.55;100832.25;5052777;28;1760;-49
2021/08/23 12:49:37;;;;;;;;;;;;;;;23.33;62.78;100831.75;5040387;28;1498;-49
2021/08/23 12:52:07;;;;;;;;;;;;;;;23.29;62.55;100847.44;5048366;28;1488;-49
2021/08/23 12:54:45;;;;;;;;;;;;;;;23.31;62.51;100842.72;5055320;28;1994;-49
2021/08/23 12:57:12;;;;;;;;;;;;;;;23.30;62.21;100835.66;5055593;28;1674;-50
2021/08/23 12:59:38;;;;;;;;;;;;;;;23.49;62.07;100825.59;5049250;28;1630;-49
2021/08/23 13:02:10;;;;;;;;;;;;;;;23.90;61.43;100834.66;5055897;28;1953;-48
2021/08/23 13:04:40;;;;;;;;;;;;;;;24.25;60.01;100826.41;5054258;28;1946;-48
2021/08/23 13:07:08;;;;;;;;;;;;;;;24.44;59.88;100809.84;5057016;28;1869;-48
2021/08/23 13:09:38;;;;;;;;;;;;;;;24.61;59.25;100830.50;5056538;28;1600;-47